EHGG/GRQ METAR and TAF weather

Enter ICAO airport designator
Station Type Date Time Source
EHGG METAR 2020/09/23 19:25 UTC NOAA

EHGG 231925Z AUTO 19006KT 9999 NSC 16/14 Q1000 NOSIG


Station Type Date Time Source
EHGG Decoded METAR 2020/09/23 19:25 UTC NOAA

Groningen Airport Eelde, Netherlands (EHGG) 53-08N 006-35E 4M
Sep 23, 2020 - 03:25 PM EDT / 2020.09.23 1925 UTC
Wind: from the S (190 degrees) at 7 MPH (6 KT):0
Visibility: greater than 7 mile(s):0
Temperature: 60 F (16 C)
Dew Point: 57 F (14 C)
Relative Humidity: 87%
Pressure (altimeter): 29.53 in. Hg (1000 hPa)
ob: EHGG 231925Z AUTO 19006KT 9999 NSC 16/14 Q1000 NOSIG
cycle: 19

Station Type Date Time Source
EHGG TAF 2020/09/23 18:27 UTC NOAA

TAF EHGG 231655Z 2318/2424 17008KT 9999 SCT025
TEMPO 2321/2403 20018G28KT 4000 SHRA SCT018CB
BECMG 2400/2403 23017G27KT
BECMG 2404/2407 20012KT
BECMG 2407/2410 20017G27KT
BECMG 2416/2418 17008KT PROB30
TEMPO 2418/2424 7000 RA

Example: see airport list